EW9200 Weather Reports


Display with metric or nautical units.
time (UTC)temp
F
wind
direction
speed
MPH
gust
MPH
rain 1hr
in
rain 24hr
in
rain mn
in
humidity
%
barometer
mb
20221005113528 40 0 0.0 0.0 0.00 0.00 0.00 97 1020.4
20221005113042 40 0 0.0 0.0 0.00 0.00 0.00 97 1020.4
20221005112530 40 0 0.0 0.0 0.00 0.00 0.00 97 1020.4
20221005112027 40 0 0.0 0.0 0.00 0.00 0.00 97 1020.5
20221005111541 40 0 0.0 0.0 0.00 0.00 0.00 97 1020.4
20221005111027 40 0 0.0 0.0 0.00 0.00 0.00 97 1020.3
20221005110530 40 0 0.0 0.0 0.00 0.00 0.00 97 1020.5
20221005110036 40 0 0.0 0.0 0.00 0.00 0.00 97 1020.6
20221005105528 40 0 0.0 0.0 0.00 0.00 0.00 97 1020.4
20221005105029 40 0 0.0 0.0 0.00 0.00 0.00 97 1020.5
20221005104538 40 0 0.0 0.0 0.00 0.00 0.00 97 1020.4
20221005104030 40 0 0.0 0.0 0.00 0.00 0.00 97 1020.2
20221005103530 40 0 0.0 0.0 0.00 0.00 0.00 97 1020.3
20221005103038 40 0 0.0 0.0 0.00 0.00 0.00 97 1020.0
20221005102530 40 0 0.0 0.0 0.00 0.00 0.00 97 1020.2
20221005102031 40 0 0.0 0.0 0.00 0.00 0.00 97 1020.0
20221005101537 40 0 0.0 0.0 0.00 0.00 0.00 97 1020.1
20221005101030 40 0 0.0 0.0 0.00 0.00 0.00 97 1020.1
20221005100530 41 0 0.0 0.0 0.00 0.00 0.00 97 1020.2
20221004201535 76 169 2.0 4.0 0.00 0.00 0.00 32 1021.4
20221004201211 76 169 2.0 4.0 0.00 0.00 0.00 35 1021.5
20221004200405 76 141 2.0 3.0 0.00 0.00 0.00 35 1021.6
20221004194028 75 145 2.0 3.0 0.00 0.00 0.00 36 1021.8
20221004193528 75 166 1.0 3.0 0.00 0.00 0.00 33 1021.9
20221004193031 74 209 1.0 5.0 0.00 0.00 0.00 34 1022.0
20221004192530 74 176 3.0 5.0 0.00 0.00 0.00 33 1021.9
20221004192028 74 188 2.0 5.0 0.00 0.00 0.00 35 1022.0
20221004191603 74 217 2.0 5.0 0.00 0.00 0.00 34 1022.2
20221004191028 74 200 2.0 4.0 0.00 0.00 0.00 36 1022.2
20221004190529 73 214 2.0 4.0 0.00 0.00 0.00 36 1022.4
20221004190052 73 103 3.0 4.0 0.00 0.00 0.00 36 1022.4
20221004185526 74 107 2.0 4.0 0.00 0.00 0.00 37 1022.5
20221004185033 74 191 1.0 4.0 0.00 0.00 0.00 36 1022.4
20221004184540 74 289 1.0 4.0 0.00 0.00 0.00 38 1022.6
20221004184029 73 166 2.0 4.0 0.00 0.00 0.00 38 1022.7
20221004183530 73 215 1.0 4.0 0.00 0.00 0.00 38 1022.8
20221004183039 74 339 1.0 4.0 0.00 0.00 0.00 36 1022.9
20221004182529 74 143 1.0 2.0 0.00 0.00 0.00 39 1023.0
20221004182028 74 98 0.0 2.0 0.00 0.00 0.00 41 1023.1
20221004181541 73 11 0.0 2.0 0.00 0.00 0.00 40 1023.2
20221004181028 72 165 1.0 3.0 0.00 0.00 0.00 38 1023.4
20221004180529 72 222 0.0 4.0 0.00 0.00 0.00 36 1023.4
20221004180053 72 238 2.0 4.0 0.00 0.00 0.00 38 1023.5
20221004175528 72 158 1.0 3.0 0.00 0.00 0.00 41 1023.5
20221004175026 71 122 1.0 3.0 0.00 0.00 0.00 41 1023.7
20221004174604 70 91 1.0 5.0 0.00 0.00 0.00 42 1023.8
20221004174029 70 309 1.0 5.0 0.00 0.00 0.00 39 1023.7
20221004173528 71 333 2.0 5.0 0.00 0.00 0.00 38 1023.8
20221004173052 71 344 1.0 2.0 0.00 0.00 0.00 41 1023.8
20221004162528 67 50 2.0 6.0 0.00 0.00 0.00 52 1024.4
20221004162028 66 205 2.0 6.0 0.00 0.00 0.00 52 1024.4
20221004161541 66 231 1.0 5.0 0.00 0.00 0.00 55 1024.4
20221004161028 65 240 1.0 7.0 0.00 0.00 0.00 52 1024.4
20221004160529 65 188 2.0 7.0 0.00 0.00 0.00 53 1024.6
20221004160031 65 162 2.0 4.0 0.00 0.00 0.00 56 1024.5
20221004155528 65 228 1.0 4.0 0.00 0.00 0.00 56 1024.6
20221004155031 64 250 1.0 4.0 0.00 0.00 0.00 57 1024.7
20221004154531 64 248 1.0 4.0 0.00 0.00 0.00 59 1024.8
20221004154029 64 161 1.0 4.0 0.00 0.00 0.00 58 1024.8
20221004153528 63 211 2.0 5.0 0.00 0.00 0.00 60 1024.9
20221004153033 63 217 2.0 5.0 0.00 0.00 0.00 60 1024.9
20221004152528 62 144 2.0 5.0 0.00 0.00 0.00 63 1024.9
20221004152027 62 203 1.0 5.0 0.00 0.00 0.00 66 1024.9
20221004151532 61 249 1.0 5.0 0.00 0.00 0.00 67 1024.9
20221004151028 61 167 1.0 4.0 0.00 0.00 0.00 70 1024.9
20221004150528 60 241 1.0 4.0 0.00 0.00 0.00 71 1025.0
20221004150033 59 209 1.0 3.0 0.00 0.00 0.00 73 1025.0
20221004145531 58 155 1.0 3.0 0.00 0.00 0.00 79 1024.8
20221004145028 57 146 0.0 3.0 0.00 0.00 0.00 80 1024.9
20221004144529 56 198 1.0 3.0 0.00 0.00 0.00 85 1025.0
20221004144027 55 134 0.0 2.0 0.00 0.00 0.00 89 1025.0
20221004143528 54 6 0.0 4.0 0.00 0.00 0.00 91 1025.1
20221004143030 53 241 2.0 4.0 0.00 0.00 0.00 98 1025.1
20221004142528 52 174 1.0 2.0 0.00 0.00 0.00 97 1025.1
20221004142026 51 243 0.0 3.0 0.00 0.00 0.00 97 1025.1
20221004141532 51 144 0.0 3.0 0.00 0.00 0.00 97 1025.0
20221004141026 50 166 0.0 1.0 0.00 0.00 0.00 97 1025.1
20221004140530 49 250 0.0 0.0 0.00 0.00 0.00 98 1025.1
20221004140031 48 0 0.0 1.0 0.00 0.00 0.00 98 1025.1
20221004135528 47 0 0.0 1.0 0.00 0.00 0.00 98 1025.2
20221004135028 47 0 0.0 1.0 0.00 0.00 0.00 98 1025.1
20221004134533 46 150 0.0 1.0 0.00 0.00 0.00 98 1025.1
20221004134030 45 226 0.0 1.0 0.00 0.00 0.00 98 1025.0
20221004133527 45 0 0.0 1.0 0.00 0.00 0.00 98 1025.0
20221004133031 44 0 0.0 1.0 0.00 0.00 0.00 98 1025.0
20221004132530 43 0 0.0 0.0 0.00 0.00 0.00 98 1025.0
20221004132028 42 0 0.0 0.0 0.00 0.00 0.00 98 1025.0
20221004131530 41 0 0.0 0.0 0.00 0.00 0.00 98 1025.0
20221004131026 40 0 0.0 0.0 0.00 0.00 0.00 98 1024.9
20221004130528 40 0 0.0 0.0 0.00 0.00 0.00 98 1025.0
20221004130040 39 0 0.0 0.0 0.00 0.00 0.00 98 1025.0
20221004125528 39 0 0.0 0.0 0.00 0.00 0.00 98 1025.1
20221004125030 38 0 0.0 0.0 0.00 0.00 0.00 98 1025.1
20221004124542 37 0 0.0 0.0 0.00 0.00 0.00 97 1025.0
20221004124027 37 0 0.0 0.0 0.00 0.00 0.00 97 1025.0
20221004123528 36 0 0.0 0.0 0.00 0.00 0.00 97 1025.1
20221004123037 36 0 0.0 0.0 0.00 0.00 0.00 97 1024.9
20221004122531 36 0 0.0 0.0 0.00 0.00 0.00 97 1024.9
20221004122030 36 0 0.0 0.0 0.00 0.00 0.00 97 1024.9
20221004121538 36 0 0.0 0.0 0.00 0.00 0.00 97 1024.8
20221004121030 36 0 0.0 0.0 0.00 0.00 0.00 97 1024.8
20221004120530 36 0 0.0 0.0 0.00 0.00 0.00 97 1024.8
20221004120037 36 0 0.0 0.0 0.00 0.00 0.00 97 1024.7
20221004115528 36 0 0.0 0.0 0.00 0.00 0.00 97 1024.8
20221004115028 36 0 0.0 0.0 0.00 0.00 0.00 97 1024.7
20221004114538 36 0 0.0 0.0 0.00 0.00 0.00 97 1024.7
20221004114028 36 0 0.0 0.0 0.00 0.00 0.00 97 1024.8